createdAt,value
2023-10-06T00:01:09.622Z,9.77
2023-10-06T00:03:45.936Z,9.75
2023-10-06T00:06:23.555Z,9.76
2023-10-06T00:08:55.601Z,9.72
2023-10-06T00:11:33.862Z,9.69
2023-10-06T00:14:02.392Z,9.69
2023-10-06T00:16:36.132Z,9.69
2023-10-06T00:19:16.112Z,9.71
2023-10-06T00:21:48.513Z,9.70
2023-10-06T00:24:16.584Z,9.75
2023-10-06T00:26:44.702Z,9.76
2023-10-06T00:29:22.452Z,9.76
2023-10-06T00:31:50.834Z,9.76
2023-10-06T00:34:21.598Z,9.76
2023-10-06T00:36:57.351Z,9.73
2023-10-06T00:39:26.356Z,9.67
2023-10-06T00:42:00.806Z,9.62
2023-10-06T00:44:31.120Z,9.59
2023-10-06T00:47:00.624Z,9.57
2023-10-06T00:49:30.262Z,9.53
2023-10-06T00:52:00.905Z,9.48
2023-10-06T00:54:28.968Z,9.47
2023-10-06T00:56:59.434Z,9.45
2023-10-06T00:59:27.869Z,9.39
2023-10-06T01:01:57.105Z,9.28
2023-10-06T01:04:26.276Z,9.20
2023-10-06T01:06:55.947Z,9.17
2023-10-06T01:09:31.608Z,9.14
2023-10-06T01:11:59.860Z,9.13
2023-10-06T01:14:28.663Z,9.09
2023-10-06T01:17:17.522Z,9.07
2023-10-06T01:19:49.509Z,9.04
2023-10-06T01:22:29.158Z,9.01
2023-10-06T01:24:59.587Z,9.00
2023-10-06T01:27:27.906Z,8.97
2023-10-06T01:30:15.870Z,8.95
2023-10-06T01:32:45.421Z,8.88
2023-10-06T01:35:14.549Z,8.81
2023-10-06T01:37:46.879Z,8.78
2023-10-06T01:40:39.107Z,8.74
2023-10-06T01:43:11.457Z,8.60
2023-10-06T01:45:46.269Z,8.56
2023-10-06T01:48:14.731Z,8.52
2023-10-06T01:50:43.009Z,8.43
2023-10-06T01:53:11.666Z,8.37
2023-10-06T01:55:40.115Z,8.33
2023-10-06T01:58:12.761Z,8.28
2023-10-06T02:00:41.357Z,8.22
2023-10-06T02:03:11.807Z,8.19
2023-10-06T02:05:40.469Z,8.17
2023-10-06T02:08:12.183Z,8.14
2023-10-06T02:10:42.056Z,8.05
2023-10-06T02:13:10.122Z,7.98
2023-10-06T02:15:38.430Z,7.89
2023-10-06T02:18:13.731Z,7.84
2023-10-06T02:20:42.941Z,7.78
2023-10-06T02:23:11.148Z,7.75
2023-10-06T02:25:40.530Z,7.75
2023-10-06T02:28:10.247Z,7.76
2023-10-06T02:30:38.935Z,7.78
2023-10-06T02:33:07.727Z,7.80
2023-10-06T02:35:35.967Z,7.80
2023-10-06T02:38:07.502Z,7.81
2023-10-06T02:40:49.983Z,7.81
2023-10-06T02:43:21.485Z,7.80
2023-10-06T02:45:49.607Z,7.80
2023-10-06T02:48:19.587Z,7.79
2023-10-06T02:50:50.720Z,7.80
2023-10-06T02:53:22.504Z,7.78
2023-10-06T02:55:57.239Z,7.73
2023-10-06T02:58:32.024Z,7.68
2023-10-06T03:01:00.667Z,7.62
2023-10-06T03:03:29.398Z,7.58
2023-10-06T03:05:59.483Z,7.58
2023-10-06T03:08:31.444Z,7.56
2023-10-06T03:11:01.434Z,7.48
2023-10-06T03:13:44.257Z,7.42
2023-10-06T03:16:12.879Z,7.38
2023-10-06T03:18:41.206Z,7.36
2023-10-06T03:21:12.793Z,7.31
2023-10-06T03:23:45.560Z,7.31
2023-10-06T03:26:23.834Z,7.36
2023-10-06T03:28:54.364Z,7.37
2023-10-06T03:31:30.022Z,7.34
2023-10-06T03:33:58.926Z,7.25
2023-10-06T03:36:38.808Z,7.15
2023-10-06T03:39:12.344Z,7.06
2023-10-06T03:41:48.017Z,7.00
2023-10-06T03:44:21.612Z,6.94
2023-10-06T03:46:50.312Z,6.93
2023-10-06T03:49:19.809Z,6.91
2023-10-06T03:51:48.656Z,6.94
2023-10-06T03:54:17.249Z,6.97
2023-10-06T03:56:51.133Z,7.02
2023-10-06T03:59:22.652Z,7.07
2023-10-06T04:01:52.942Z,7.09
2023-10-06T04:04:24.269Z,7.13
2023-10-06T04:06:55.742Z,7.18
2023-10-06T04:09:30.256Z,7.21
2023-10-06T04:11:58.734Z,7.23
2023-10-06T04:14:29.373Z,7.30
2023-10-06T04:16:59.556Z,7.35
2023-10-06T04:19:27.846Z,7.37
2023-10-06T04:21:56.167Z,7.43
2023-10-06T04:24:24.405Z,7.48
2023-10-06T04:26:53.255Z,7.49
2023-10-06T04:29:22.027Z,7.47
2023-10-06T04:31:50.304Z,7.48
2023-10-06T04:34:22.517Z,7.48
2023-10-06T04:36:52.786Z,7.48
2023-10-06T04:39:21.204Z,7.49
2023-10-06T04:41:49.357Z,7.52
2023-10-06T04:44:17.552Z,7.54
2023-10-06T04:46:45.759Z,7.58
2023-10-06T04:49:13.948Z,7.64
2023-10-06T04:51:42.708Z,7.73
2023-10-06T04:54:11.151Z,7.83
2023-10-06T04:56:43.591Z,7.91
2023-10-06T04:59:12.849Z,8.00
2023-10-06T05:01:41.408Z,8.12
2023-10-06T05:04:10.501Z,8.26
2023-10-06T05:06:38.901Z,8.43
2023-10-06T05:09:08.469Z,8.59
2023-10-06T05:11:39.280Z,8.72
2023-10-06T05:14:10.330Z,8.79
2023-10-06T05:16:39.579Z,8.81
2023-10-06T05:19:09.251Z,8.79
2023-10-06T05:21:37.909Z,8.66
2023-10-06T05:24:09.845Z,8.58
2023-10-06T05:26:38.107Z,8.62
2023-10-06T05:29:06.803Z,8.69
2023-10-06T05:31:35.220Z,8.79
2023-10-06T05:34:05.994Z,8.89
2023-10-06T05:36:34.816Z,9.02
2023-10-06T05:39:04.363Z,9.18
2023-10-06T05:41:33.864Z,9.30
2023-10-06T05:44:01.967Z,9.40
2023-10-06T05:46:31.805Z,9.46
2023-10-06T05:49:02.240Z,9.54
2023-10-06T05:51:34.688Z,9.65
2023-10-06T05:54:03.932Z,9.77
2023-10-06T05:56:33.987Z,9.95
2023-10-06T05:59:02.774Z,10.18
2023-10-06T06:01:33.559Z,10.40
2023-10-06T06:04:10.225Z,10.63
2023-10-06T06:06:38.988Z,10.85
2023-10-06T06:09:15.758Z,11.00
2023-10-06T06:11:44.171Z,11.17
2023-10-06T06:14:17.756Z,11.41
2023-10-06T06:16:46.716Z,11.67
2023-10-06T06:19:15.496Z,11.86
2023-10-06T06:21:44.124Z,12.00
2023-10-06T06:24:12.460Z,12.05
2023-10-06T06:26:40.693Z,12.08
2023-10-06T06:29:13.031Z,12.11
2023-10-06T06:31:42.649Z,12.17
2023-10-06T06:34:11.220Z,12.23
2023-10-06T06:36:39.505Z,12.28
2023-10-06T06:39:11.440Z,12.27
2023-10-06T06:41:39.971Z,12.19
2023-10-06T06:44:08.329Z,12.31
2023-10-06T06:46:36.890Z,12.40
2023-10-06T06:49:05.960Z,12.43
2023-10-06T06:51:35.349Z,12.52
2023-10-06T06:54:03.777Z,12.54
2023-10-06T06:56:32.037Z,12.62
2023-10-06T06:59:01.357Z,12.69
2023-10-06T07:01:30.117Z,12.78
2023-10-06T07:04:02.812Z,12.93
2023-10-06T07:06:33.013Z,13.05
2023-10-06T07:09:02.222Z,13.14
2023-10-06T07:11:30.785Z,13.22
2023-10-06T07:13:59.231Z,13.27
2023-10-06T07:16:27.767Z,13.31
2023-10-06T07:18:56.470Z,13.36
2023-10-06T07:21:24.629Z,13.48
2023-10-06T07:23:57.989Z,13.57
2023-10-06T07:26:26.699Z,13.69
2023-10-06T07:28:56.756Z,13.83
2023-10-06T07:31:28.263Z,13.92
2023-10-06T07:33:59.465Z,13.94
2023-10-06T07:36:29.430Z,13.99
2023-10-06T07:38:58.843Z,14.08
2023-10-06T07:41:28.264Z,14.20
2023-10-06T07:43:57.417Z,14.28
2023-10-06T07:46:25.950Z,14.33
2023-10-06T07:51:27.732Z,14.54
2023-10-06T07:53:56.416Z,14.63
2023-10-06T07:56:24.723Z,14.66
2023-10-06T07:58:54.476Z,14.72
2023-10-06T08:01:22.939Z,14.80
2023-10-06T08:03:52.091Z,14.81
2023-10-06T08:06:22.046Z,14.83
2023-10-06T08:08:50.524Z,14.91
2023-10-06T08:11:22.240Z,15.09
2023-10-06T08:13:52.194Z,15.22
2023-10-06T08:16:21.107Z,15.28
2023-10-06T08:18:49.349Z,15.41
2023-10-06T08:21:17.590Z,15.45
2023-10-06T08:23:47.608Z,15.45
2023-10-06T08:26:16.207Z,15.54
2023-10-06T08:28:44.721Z,15.66
2023-10-06T08:31:16.524Z,15.81
2023-10-06T08:33:46.616Z,15.90
2023-10-06T08:36:15.140Z,15.95
2023-10-06T08:38:48.059Z,16.05
2023-10-06T08:41:23.836Z,16.13
2023-10-06T08:43:54.671Z,16.15
2023-10-06T08:46:23.937Z,16.21
2023-10-06T08:48:52.805Z,16.27
2023-10-06T08:51:23.872Z,16.25
2023-10-06T08:53:52.514Z,16.32
2023-10-06T08:56:20.908Z,16.44
2023-10-06T08:58:49.286Z,16.52
2023-10-06T09:01:19.803Z,16.61
2023-10-06T09:03:50.921Z,16.69
2023-10-06T09:06:19.492Z,16.74
2023-10-06T09:08:51.473Z,16.82
2023-10-06T09:11:38.910Z,16.91
2023-10-06T09:17:03.199Z,16.82
2023-10-06T09:19:52.301Z,16.75
2023-10-06T09:22:22.766Z,16.67
2023-10-06T09:25:01.205Z,16.65
2023-10-06T09:27:29.939Z,16.59
2023-10-06T09:30:02.831Z,16.54
2023-10-06T09:32:31.102Z,16.48
2023-10-06T09:34:59.271Z,16.39
2023-10-06T09:37:27.562Z,16.31
2023-10-06T09:40:05.409Z,16.24
2023-10-06T09:42:34.730Z,16.26
2023-10-06T09:45:16.556Z,16.34
2023-10-06T09:47:52.979Z,16.42
2023-10-06T09:50:22.314Z,16.35
2023-10-06T09:52:54.193Z,16.31
2023-10-06T09:55:22.742Z,16.29
2023-10-06T09:57:53.708Z,16.29
2023-10-06T10:00:22.703Z,16.28
2023-10-06T10:02:51.902Z,16.24
2023-10-06T10:05:20.741Z,16.25
2023-10-06T10:07:51.851Z,16.33
2023-10-06T10:10:23.860Z,16.38
2023-10-06T10:13:33.043Z,16.41
2023-10-06T10:16:12.536Z,16.48
2023-10-06T10:18:46.948Z,16.60
2023-10-06T10:21:17.358Z,16.77
2023-10-06T10:23:47.776Z,16.94
2023-10-06T10:26:29.910Z,17.13
2023-10-06T10:29:14.906Z,17.28
2023-10-06T10:34:35.236Z,17.43
2023-10-06T10:37:09.503Z,17.59
2023-10-06T10:39:48.824Z,17.78
2023-10-06T10:42:37.549Z,17.90
2023-10-06T10:45:46.570Z,17.98
2023-10-06T10:48:16.956Z,18.16
2023-10-06T10:51:12.258Z,18.29
2023-10-06T10:53:45.030Z,18.25
2023-10-06T10:56:28.244Z,18.13
2023-10-06T10:58:57.687Z,17.90
2023-10-06T11:01:33.495Z,17.90
2023-10-06T11:04:14.092Z,18.07
2023-10-06T11:06:46.382Z,18.21
2023-10-06T11:09:36.023Z,18.07
2023-10-06T11:12:23.682Z,17.93
2023-10-06T11:15:03.988Z,17.76
2023-10-06T11:17:33.606Z,17.65
2023-10-06T11:20:15.548Z,17.73
2023-10-06T11:23:04.514Z,17.78
2023-10-06T11:25:34.368Z,17.81
2023-10-06T11:28:06.153Z,17.71
2023-10-06T11:30:36.865Z,17.73
2023-10-06T11:33:07.146Z,17.86
2023-10-06T11:35:36.654Z,17.81
2023-10-06T11:38:07.284Z,17.69
2023-10-06T11:40:36.943Z,17.64
2023-10-06T11:43:13.913Z,17.60
2023-10-06T11:45:44.040Z,17.55
2023-10-06T11:48:30.890Z,17.57
2023-10-06T11:51:17.717Z,17.50
2023-10-06T11:53:46.193Z,17.46
2023-10-06T11:56:16.910Z,17.59
2023-10-06T11:58:46.315Z,17.65
2023-10-06T12:04:31.871Z,17.80
2023-10-06T12:07:00.199Z,17.69
2023-10-06T12:09:39.914Z,17.66
2023-10-06T12:12:09.278Z,17.67
2023-10-06T12:14:37.943Z,17.65
2023-10-06T12:17:07.479Z,17.57
2023-10-06T12:19:35.876Z,17.45
2023-10-06T12:22:04.385Z,17.38
2023-10-06T12:24:33.219Z,17.42
2023-10-06T12:27:02.262Z,17.44
2023-10-06T12:29:32.515Z,17.54
2023-10-06T12:32:02.926Z,17.64
2023-10-06T12:34:34.688Z,17.70
2023-10-06T12:37:03.267Z,17.80
2023-10-06T12:39:37.308Z,17.79
2023-10-06T12:42:06.775Z,17.71
2023-10-06T12:44:41.128Z,17.70
2023-10-06T12:47:13.174Z,17.71
2023-10-06T12:49:45.366Z,17.62
2023-10-06T12:52:14.044Z,17.63
2023-10-06T12:54:42.499Z,17.69
2023-10-06T12:57:10.681Z,17.72
2023-10-06T12:59:38.958Z,17.76
2023-10-06T13:02:07.109Z,17.77
2023-10-06T13:04:35.523Z,17.76
2023-10-06T13:07:05.347Z,17.86
2023-10-06T13:09:37.056Z,17.89
2023-10-06T13:12:09.856Z,17.88
2023-10-06T13:14:39.272Z,17.81
2023-10-06T13:17:09.502Z,17.83
2023-10-06T13:19:38.175Z,17.85
2023-10-06T13:22:07.364Z,17.86
2023-10-06T13:24:36.332Z,17.94
2023-10-06T13:27:04.515Z,17.96
2023-10-06T13:29:33.886Z,17.94
2023-10-06T13:32:02.693Z,17.83
2023-10-06T13:34:31.692Z,17.76
2023-10-06T13:37:00.119Z,17.75
2023-10-06T13:39:29.637Z,17.84
2023-10-06T13:41:57.798Z,17.88
2023-10-06T13:44:27.300Z,17.87
2023-10-06T13:46:56.187Z,17.87
2023-10-06T13:49:30.491Z,17.78
2023-10-06T13:51:59.014Z,17.80
2023-10-06T13:54:28.482Z,17.80
2023-10-06T13:56:58.643Z,17.83
2023-10-06T13:59:27.614Z,17.87
2023-10-06T14:01:56.454Z,17.88
2023-10-06T14:04:25.174Z,17.89
2023-10-06T14:06:55.230Z,17.85
2023-10-06T14:09:27.219Z,17.81
2023-10-06T14:11:56.389Z,17.67
2023-10-06T14:14:43.144Z,17.57
2023-10-06T14:17:17.757Z,17.47
2023-10-06T14:19:47.790Z,17.35
2023-10-06T14:22:19.426Z,17.30
2023-10-06T14:24:49.452Z,17.25
2023-10-06T14:27:20.315Z,17.21
2023-10-06T14:29:48.787Z,17.14
2023-10-06T14:32:38.440Z,17.11
2023-10-06T14:35:24.024Z,17.05
2023-10-06T14:38:10.898Z,17.01
2023-10-06T14:41:01.884Z,16.97
2023-10-06T14:43:49.977Z,16.86
2023-10-06T14:46:18.220Z,16.80
2023-10-06T14:48:47.242Z,16.73
2023-10-06T14:51:15.407Z,16.60
2023-10-06T14:53:46.092Z,16.53
2023-10-06T14:56:14.598Z,16.49
2023-10-06T14:58:46.299Z,16.43
2023-10-06T15:01:15.758Z,16.36
2023-10-06T15:03:44.309Z,16.29
2023-10-06T15:06:12.623Z,16.19
2023-10-06T15:08:40.818Z,16.07
2023-10-06T15:11:10.043Z,16.00
2023-10-06T15:13:38.576Z,15.93
2023-10-06T15:16:08.858Z,15.85
2023-10-06T15:18:37.051Z,15.77
2023-10-06T15:21:05.445Z,15.68
2023-10-06T15:23:33.595Z,15.60
2023-10-06T15:26:05.260Z,15.45
2023-10-06T15:28:39.219Z,15.31
2023-10-06T15:31:07.846Z,15.18
2023-10-06T15:33:35.992Z,15.06
2023-10-06T15:36:05.392Z,14.96
2023-10-06T15:38:34.314Z,14.82
2023-10-06T15:41:06.438Z,14.70
2023-10-06T15:43:37.531Z,14.59
2023-10-06T15:46:10.199Z,14.45
2023-10-06T15:48:41.342Z,14.34
2023-10-06T15:51:10.765Z,14.19
2023-10-06T15:53:41.134Z,14.09
2023-10-06T15:56:17.731Z,13.98
2023-10-06T15:58:48.869Z,13.86
2023-10-06T16:01:19.446Z,13.76
2023-10-06T16:03:49.195Z,13.66
2023-10-06T16:06:18.785Z,13.57
2023-10-06T16:08:48.219Z,13.46
2023-10-06T16:11:17.423Z,13.39
2023-10-06T16:13:46.555Z,13.32
2023-10-06T16:16:17.860Z,13.26
2023-10-06T16:18:48.439Z,13.20
2023-10-06T16:21:18.117Z,13.14
2023-10-06T16:23:51.128Z,13.09
2023-10-06T16:26:19.776Z,13.02
2023-10-06T16:28:47.853Z,12.96
2023-10-06T16:31:16.643Z,12.87
2023-10-06T16:33:44.889Z,12.80
2023-10-06T16:36:13.495Z,12.72
2023-10-06T16:38:44.571Z,12.64
2023-10-06T16:41:13.807Z,12.59
2023-10-06T16:43:43.036Z,12.47
2023-10-06T16:46:12.285Z,12.37
2023-10-06T16:48:40.923Z,12.25
2023-10-06T16:51:09.857Z,12.18
2023-10-06T16:53:37.944Z,12.12
2023-10-06T16:56:06.331Z,12.06
2023-10-06T16:58:34.670Z,11.99
2023-10-06T17:01:06.991Z,11.91
2023-10-06T17:03:35.116Z,11.88
2023-10-06T17:06:05.377Z,11.86
2023-10-06T17:08:33.622Z,11.80
2023-10-06T17:11:18.249Z,11.76
2023-10-06T17:13:47.042Z,11.70
2023-10-06T17:16:15.750Z,11.69
2023-10-06T17:18:44.168Z,11.67
2023-10-06T17:21:16.912Z,11.67
2023-10-06T17:23:45.825Z,11.66
2023-10-06T17:26:14.536Z,11.61
2023-10-06T17:28:43.451Z,11.55
2023-10-06T17:31:19.696Z,11.50
2023-10-06T17:33:53.748Z,11.44
2023-10-06T17:36:22.283Z,11.32
2023-10-06T17:38:52.021Z,11.24
2023-10-06T17:41:24.278Z,11.14
2023-10-06T17:43:53.548Z,11.02
2023-10-06T17:46:24.029Z,10.97
2023-10-06T17:48:52.387Z,10.94
2023-10-06T17:51:21.059Z,10.91
2023-10-06T17:53:49.800Z,10.88
2023-10-06T17:56:21.150Z,10.86
2023-10-06T17:58:51.368Z,10.83
2023-10-06T18:01:20.268Z,10.82
2023-10-06T18:03:49.873Z,10.80
2023-10-06T18:06:19.135Z,10.79
2023-10-06T18:08:50.256Z,10.76
2023-10-06T18:11:18.833Z,10.71
2023-10-06T18:13:49.210Z,10.68
2023-10-06T18:16:17.516Z,10.63
2023-10-06T18:18:46.310Z,10.62
2023-10-06T18:21:18.812Z,10.58
2023-10-06T18:23:47.174Z,10.57
2023-10-06T18:26:16.090Z,10.55
2023-10-06T18:28:44.329Z,10.51
2023-10-06T18:31:14.928Z,10.49
2023-10-06T18:33:43.217Z,10.44
2023-10-06T18:36:11.629Z,10.41
2023-10-06T18:38:40.697Z,10.35
2023-10-06T18:41:13.720Z,10.28
2023-10-06T18:43:46.361Z,10.22
2023-10-06T18:46:15.931Z,10.13
2023-10-06T18:48:47.640Z,10.01
2023-10-06T18:51:16.796Z,9.92
2023-10-06T18:53:45.158Z,9.86
2023-10-06T18:56:14.919Z,9.80
2023-10-06T18:58:47.500Z,9.76
2023-10-06T19:01:16.064Z,9.73
2023-10-06T19:03:44.614Z,9.71
2023-10-06T19:06:18.226Z,9.68
2023-10-06T19:08:54.799Z,9.62
2023-10-06T19:11:25.506Z,9.55
2023-10-06T19:13:55.758Z,9.51
2023-10-06T19:16:24.014Z,9.46
2023-10-06T19:18:52.431Z,9.42
2023-10-06T19:21:24.920Z,9.35
2023-10-06T19:23:53.077Z,9.29
2023-10-06T19:26:23.289Z,9.23
2023-10-06T19:28:51.766Z,9.19
2023-10-06T19:31:20.171Z,9.17
2023-10-06T19:33:49.058Z,9.17
2023-10-06T19:36:17.519Z,9.11
2023-10-06T19:38:47.762Z,9.06
2023-10-06T19:41:16.301Z,9.04
2023-10-06T19:43:45.614Z,9.08
2023-10-06T19:46:15.725Z,9.05
2023-10-06T19:48:47.452Z,9.04
2023-10-06T19:51:16.510Z,9.05
2023-10-06T19:53:44.845Z,9.07
2023-10-06T19:56:14.870Z,9.08
2023-10-06T19:58:43.095Z,9.08
2023-10-06T20:01:11.264Z,9.07
2023-10-06T20:03:39.586Z,9.06
2023-10-06T20:06:09.013Z,9.08
2023-10-06T20:08:37.471Z,9.11
2023-10-06T20:11:06.903Z,9.14
2023-10-06T20:13:35.594Z,9.13
2023-10-06T20:16:10.127Z,9.12
2023-10-06T20:18:41.149Z,9.11
2023-10-06T20:21:18.956Z,9.10
2023-10-06T20:23:51.256Z,9.07
2023-10-06T20:26:19.773Z,9.04
2023-10-06T20:28:47.894Z,8.99
2023-10-06T20:31:16.179Z,8.95
2023-10-06T20:33:44.565Z,8.90
2023-10-06T20:36:12.798Z,8.84
2023-10-06T20:38:41.082Z,8.80
2023-10-06T20:41:09.304Z,8.78
2023-10-06T20:43:37.384Z,8.78
2023-10-06T20:46:06.470Z,8.81
2023-10-06T20:48:34.679Z,8.84
2023-10-06T20:51:03.406Z,8.84
2023-10-06T20:53:33.407Z,8.84
2023-10-06T20:56:02.624Z,8.83
2023-10-06T20:58:31.549Z,8.84
2023-10-06T21:01:09.453Z,8.83
2023-10-06T21:03:37.725Z,8.82
2023-10-06T21:06:06.180Z,8.83
2023-10-06T21:08:34.306Z,8.87
2023-10-06T21:11:02.434Z,8.91
2023-10-06T21:13:30.840Z,8.97
2023-10-06T21:15:59.503Z,9.02
2023-10-06T21:18:28.314Z,9.06
2023-10-06T21:20:56.815Z,9.09
2023-10-06T21:23:26.701Z,9.11
2023-10-06T21:25:54.889Z,9.12
2023-10-06T21:28:23.912Z,9.15
2023-10-06T21:30:52.643Z,9.17
2023-10-06T21:33:21.065Z,9.18
2023-10-06T21:35:49.289Z,9.21
2023-10-06T21:38:17.430Z,9.24
2023-10-06T21:40:45.660Z,9.27
2023-10-06T21:43:13.816Z,9.31
2023-10-06T21:45:41.963Z,9.32
2023-10-06T21:48:10.069Z,9.33
2023-10-06T21:50:38.321Z,9.33
2023-10-06T21:53:06.446Z,9.33
2023-10-06T21:55:34.553Z,9.33
2023-10-06T21:58:05.017Z,9.34
2023-10-06T22:00:34.015Z,9.33
2023-10-06T22:03:02.219Z,9.28
2023-10-06T22:05:30.904Z,9.26
2023-10-06T22:07:59.126Z,9.24
2023-10-06T22:10:28.839Z,9.21
2023-10-06T22:12:57.044Z,9.18
2023-10-06T22:15:25.140Z,9.16
2023-10-06T22:17:53.963Z,9.17
2023-10-06T22:20:22.542Z,9.19
2023-10-06T22:22:51.874Z,9.19
2023-10-06T22:25:20.821Z,9.18
2023-10-06T22:27:48.992Z,9.17
2023-10-06T22:30:17.448Z,9.16
2023-10-06T22:32:45.598Z,9.16
2023-10-06T22:35:14.525Z,9.18
2023-10-06T22:37:42.680Z,9.21
2023-10-06T22:40:18.232Z,9.25
2023-10-06T22:42:49.065Z,9.27
2023-10-06T22:45:20.360Z,9.29
2023-10-06T22:47:53.492Z,9.25
2023-10-06T22:50:22.695Z,9.24
2023-10-06T22:52:51.484Z,9.22
2023-10-06T22:55:20.480Z,9.19
2023-10-06T22:57:49.316Z,9.16
2023-10-06T23:00:21.705Z,9.14
2023-10-06T23:02:53.514Z,9.11
2023-10-06T23:05:24.560Z,9.09
2023-10-06T23:07:53.148Z,9.09
2023-10-06T23:10:23.920Z,9.08
2023-10-06T23:12:52.474Z,9.02
2023-10-06T23:15:21.921Z,8.95
2023-10-06T23:17:51.040Z,8.86
2023-10-06T23:20:22.294Z,8.79
2023-10-06T23:22:54.589Z,8.76
2023-10-06T23:25:25.315Z,8.72
2023-10-06T23:27:54.256Z,8.68
2023-10-06T23:30:23.895Z,8.64
2023-10-06T23:32:52.226Z,8.57
2023-10-06T23:35:20.490Z,8.57
2023-10-06T23:37:56.374Z,8.55
2023-10-06T23:40:26.649Z,8.47
2023-10-06T23:42:58.471Z,8.41
2023-10-06T23:45:32.943Z,8.40
2023-10-06T23:48:10.841Z,8.33
2023-10-06T23:50:52.618Z,8.24
2023-10-06T23:53:24.578Z,8.20
2023-10-06T23:55:54.137Z,8.17
2023-10-06T23:58:23.845Z,8.17
